createdAt,value
2023-05-05T00:02:15.296Z,51.68
2023-05-05T00:04:42.966Z,52.73
2023-05-05T00:07:10.324Z,53.37
2023-05-05T00:09:37.696Z,51.51
2023-05-05T00:12:05.578Z,52.63
2023-05-05T00:14:32.897Z,51.56
2023-05-05T00:17:00.362Z,52.82
2023-05-05T00:19:28.003Z,52.47
2023-05-05T00:21:55.632Z,51.90
2023-05-05T00:24:23.004Z,53.26
2023-05-05T00:26:51.118Z,53.43
2023-05-05T00:29:18.535Z,52.44
2023-05-05T00:31:46.139Z,52.40
2023-05-05T00:34:13.748Z,53.34
2023-05-05T00:36:41.424Z,53.35
2023-05-05T00:39:08.885Z,53.83
2023-05-05T00:41:36.657Z,52.97
2023-05-05T00:44:04.152Z,50.43
2023-05-05T00:46:31.582Z,52.03
2023-05-05T00:49:00.792Z,52.36
2023-05-05T00:51:28.231Z,53.28
2023-05-05T00:53:55.905Z,52.95
2023-05-05T00:56:24.668Z,52.33
2023-05-05T00:58:52.039Z,53.67
2023-05-05T01:01:19.686Z,52.20
2023-05-05T01:03:47.400Z,52.85
2023-05-05T01:06:32.855Z,53.05
2023-05-05T01:09:19.450Z,52.86
2023-05-05T01:11:52.968Z,52.64
2023-05-05T01:14:24.496Z,53.31
2023-05-05T01:17:01.669Z,53.91
2023-05-05T01:19:54.372Z,54.14
2023-05-05T01:22:23.730Z,54.29
2023-05-05T01:25:04.050Z,54.05
2023-05-05T01:27:46.592Z,54.00
2023-05-05T01:30:26.187Z,54.31
2023-05-05T01:32:55.377Z,54.03
2023-05-05T01:35:29.394Z,53.16
2023-05-05T01:38:07.038Z,52.19
2023-05-05T01:40:38.270Z,53.09
2023-05-05T01:43:06.504Z,52.78
2023-05-05T01:45:35.939Z,53.61
2023-05-05T01:48:03.768Z,52.58
2023-05-05T01:50:31.161Z,53.55
2023-05-05T01:52:58.536Z,53.36
2023-05-05T01:55:26.324Z,53.38
2023-05-05T01:57:53.812Z,52.00
2023-05-05T02:00:21.265Z,52.38
2023-05-05T02:02:49.363Z,52.75
2023-05-05T02:05:19.187Z,52.42
2023-05-05T02:07:46.557Z,53.18
2023-05-05T02:10:14.361Z,53.76
2023-05-05T02:12:42.704Z,53.44
2023-05-05T02:15:10.511Z,52.74
2023-05-05T02:17:41.738Z,53.44
2023-05-05T02:20:11.048Z,52.87
2023-05-05T02:22:38.771Z,53.55
2023-05-05T02:25:06.694Z,53.49
2023-05-05T02:27:34.267Z,53.38
2023-05-05T02:30:07.340Z,53.15
2023-05-05T02:32:36.339Z,53.53
2023-05-05T02:35:09.214Z,53.93
2023-05-05T02:37:36.800Z,53.86
2023-05-05T02:40:05.412Z,53.25
2023-05-05T02:42:35.891Z,53.14
2023-05-05T02:45:10.697Z,54.55
2023-05-05T02:47:39.705Z,54.05
2023-05-05T02:50:08.255Z,55.02
2023-05-05T02:52:36.818Z,53.62
2023-05-05T02:55:05.086Z,53.75
2023-05-05T02:58:02.625Z,53.84
2023-05-05T03:00:39.613Z,52.97
2023-05-05T03:03:07.473Z,54.58
2023-05-05T03:05:47.452Z,54.13
2023-05-05T03:08:49.150Z,54.03
2023-05-05T03:11:46.181Z,54.85
2023-05-05T03:14:14.330Z,54.38
2023-05-05T03:16:42.652Z,54.38
2023-05-05T03:19:13.082Z,55.66
2023-05-05T03:21:41.096Z,56.29
2023-05-05T03:24:18.578Z,56.91
2023-05-05T03:26:47.549Z,56.58
2023-05-05T03:29:15.848Z,56.21
2023-05-05T03:31:43.386Z,56.22
2023-05-05T03:34:11.048Z,56.33
2023-05-05T03:36:39.223Z,56.25
2023-05-05T03:39:08.440Z,56.00
2023-05-05T03:41:35.847Z,56.43
2023-05-05T03:44:03.769Z,56.42
2023-05-05T03:46:31.292Z,55.99
2023-05-05T03:48:58.709Z,56.56
2023-05-05T03:51:26.901Z,55.77
2023-05-05T03:53:54.417Z,56.58
2023-05-05T03:56:22.746Z,56.98
2023-05-05T03:58:51.999Z,56.19
2023-05-05T04:01:19.485Z,55.85
2023-05-05T04:03:47.247Z,55.10
2023-05-05T04:06:14.728Z,56.07
2023-05-05T04:08:42.100Z,55.88
2023-05-05T04:11:09.726Z,55.36
2023-05-05T04:13:37.148Z,55.88
2023-05-05T04:16:04.824Z,55.83
2023-05-05T04:18:32.457Z,56.13
2023-05-05T04:20:59.859Z,54.63
2023-05-05T04:23:27.379Z,54.47
2023-05-05T04:25:55.017Z,55.27
2023-05-05T04:28:22.571Z,55.79
2023-05-05T04:30:50.103Z,55.53
2023-05-05T04:33:17.731Z,54.08
2023-05-05T04:35:46.222Z,55.03
2023-05-05T04:38:13.645Z,54.49
2023-05-05T04:40:41.427Z,54.09
2023-05-05T04:43:09.371Z,53.88
2023-05-05T04:45:36.942Z,53.34
2023-05-05T04:48:05.746Z,52.29
2023-05-05T04:50:33.252Z,51.70
2023-05-05T04:53:00.806Z,50.95
2023-05-05T04:55:28.575Z,49.46
2023-05-05T04:57:55.927Z,48.80
2023-05-05T05:00:24.344Z,47.91
2023-05-05T05:02:52.579Z,46.93
2023-05-05T05:05:20.059Z,47.10
2023-05-05T05:07:47.469Z,46.80
2023-05-05T05:10:15.071Z,45.61
2023-05-05T05:12:42.524Z,43.94
2023-05-05T05:15:11.273Z,42.25
2023-05-05T05:17:38.925Z,40.10
2023-05-05T05:20:07.671Z,38.64
2023-05-05T05:22:38.274Z,36.21
2023-05-05T05:25:06.351Z,33.62
2023-05-05T05:27:33.803Z,31.73
2023-05-05T05:30:01.215Z,30.03
2023-05-05T05:32:30.091Z,29.19
2023-05-05T05:34:57.605Z,27.61
2023-05-05T05:37:28.819Z,24.90
2023-05-05T05:39:56.934Z,25.92
2023-05-05T05:42:24.590Z,25.07
2023-05-05T05:44:52.096Z,22.05
2023-05-05T05:47:19.761Z,22.57
2023-05-05T05:49:47.083Z,20.91
2023-05-05T05:52:14.459Z,20.96
2023-05-05T05:54:42.176Z,20.50
2023-05-05T05:57:09.695Z,20.78
2023-05-05T05:59:37.040Z,19.94
2023-05-05T06:02:05.065Z,19.55
2023-05-05T06:04:32.995Z,18.98
2023-05-05T06:07:01.242Z,20.31
2023-05-05T06:09:28.950Z,21.82
2023-05-05T06:11:56.559Z,22.98
2023-05-05T06:14:23.985Z,23.04
2023-05-05T06:16:52.301Z,20.39
2023-05-05T06:19:20.542Z,19.03
2023-05-05T06:21:48.177Z,20.75
2023-05-05T06:24:16.026Z,21.51
2023-05-05T06:26:44.036Z,23.00
2023-05-05T06:29:12.460Z,21.23
2023-05-05T06:31:39.928Z,19.33
2023-05-05T06:34:07.565Z,18.97
2023-05-05T06:36:34.940Z,18.58
2023-05-05T06:39:02.527Z,17.13
2023-05-05T06:41:30.181Z,19.43
2023-05-05T06:43:57.492Z,24.21
2023-05-05T06:46:25.138Z,22.77
2023-05-05T06:48:53.028Z,22.38
2023-05-05T06:51:20.591Z,21.27
2023-05-05T06:53:47.926Z,23.80
2023-05-05T06:56:15.851Z,20.67
2023-05-05T06:58:43.265Z,19.48
2023-05-05T07:01:10.691Z,18.75
2023-05-05T07:03:38.358Z,19.02
2023-05-05T07:06:06.013Z,18.35
2023-05-05T07:08:33.476Z,17.47
2023-05-05T07:11:03.962Z,18.37
2023-05-05T07:13:31.293Z,16.56
2023-05-05T07:15:58.611Z,16.55
2023-05-05T07:18:26.220Z,16.57
2023-05-05T07:20:53.616Z,15.64
2023-05-05T07:23:20.984Z,14.97
2023-05-05T07:25:48.793Z,15.04
2023-05-05T07:28:16.364Z,16.00
2023-05-05T07:30:43.771Z,16.05
2023-05-05T07:33:11.464Z,14.97
2023-05-05T07:35:39.066Z,14.61
2023-05-05T07:38:07.722Z,16.06
2023-05-05T07:40:36.318Z,15.43
2023-05-05T07:43:04.743Z,15.59
2023-05-05T07:45:32.158Z,14.52
2023-05-05T07:47:59.819Z,14.02
2023-05-05T07:50:27.200Z,13.94
2023-05-05T07:53:02.546Z,14.21
2023-05-05T07:55:41.413Z,14.94
2023-05-05T07:58:10.838Z,13.17
2023-05-05T08:00:38.865Z,13.64
2023-05-05T08:03:08.951Z,12.83
2023-05-05T08:05:38.286Z,13.01
2023-05-05T08:08:06.195Z,13.99
2023-05-05T08:10:33.908Z,14.54
2023-05-05T08:13:01.335Z,13.72
2023-05-05T08:15:28.732Z,13.06
2023-05-05T08:17:56.520Z,13.03
2023-05-05T08:20:27.883Z,13.73
2023-05-05T08:22:55.753Z,12.67
2023-05-05T08:25:23.383Z,12.93
2023-05-05T08:27:50.888Z,13.33
2023-05-05T08:30:28.183Z,13.50
2023-05-05T08:32:55.661Z,13.43
2023-05-05T08:35:23.903Z,14.00
2023-05-05T08:37:51.768Z,15.12
2023-05-05T08:40:20.880Z,13.98
2023-05-05T08:42:49.010Z,17.54
2023-05-05T08:45:16.917Z,16.94
2023-05-05T08:47:45.056Z,15.81
2023-05-05T08:50:12.711Z,15.79
2023-05-05T08:52:41.979Z,16.20
2023-05-05T08:55:26.596Z,16.32
2023-05-05T08:57:57.966Z,14.10
2023-05-05T09:00:27.088Z,17.10
2023-05-05T09:02:56.982Z,16.86
2023-05-05T09:05:25.014Z,14.60
2023-05-05T09:07:52.403Z,14.36
2023-05-05T09:10:20.058Z,14.90
2023-05-05T09:12:49.555Z,16.07
2023-05-05T09:15:16.874Z,16.66
2023-05-05T09:17:44.522Z,14.97
2023-05-05T09:20:12.840Z,14.27
2023-05-05T09:22:45.031Z,14.51
2023-05-05T09:25:13.918Z,14.73
2023-05-05T09:27:48.557Z,14.57
2023-05-05T09:30:24.746Z,15.84
2023-05-05T09:32:53.544Z,14.89
2023-05-05T09:35:22.055Z,15.48
2023-05-05T09:37:49.501Z,16.57
2023-05-05T09:40:20.308Z,16.58
2023-05-05T09:42:48.152Z,19.53
2023-05-05T09:45:25.218Z,18.75
2023-05-05T09:47:58.764Z,17.29
2023-05-05T09:50:30.534Z,18.23
2023-05-05T09:53:02.629Z,18.28
2023-05-05T09:55:31.386Z,17.26
2023-05-05T09:58:21.625Z,16.96
2023-05-05T10:00:50.134Z,18.41
2023-05-05T10:03:18.822Z,20.40
2023-05-05T10:05:50.708Z,19.43
2023-05-05T10:08:19.789Z,18.17
2023-05-05T10:10:53.963Z,18.30
2023-05-05T10:13:22.512Z,16.92
2023-05-05T10:15:54.580Z,16.37
2023-05-05T10:18:22.968Z,17.05
2023-05-05T10:20:59.121Z,16.50
2023-05-05T10:23:47.999Z,16.02
2023-05-05T10:26:15.563Z,16.22
2023-05-05T10:28:55.110Z,15.64
2023-05-05T10:31:39.911Z,16.39
2023-05-05T10:34:10.277Z,17.97
2023-05-05T10:36:40.851Z,16.82
2023-05-05T10:39:10.764Z,15.95
2023-05-05T10:41:38.209Z,17.58
2023-05-05T10:44:05.936Z,18.75
2023-05-05T10:46:33.604Z,21.02
2023-05-05T10:49:41.151Z,23.50
2023-05-05T10:52:14.476Z,22.87
2023-05-05T10:55:02.496Z,24.28
2023-05-05T10:57:30.429Z,28.06
2023-05-05T10:59:57.804Z,27.90
2023-05-05T11:02:28.787Z,27.63
2023-05-05T11:05:09.744Z,26.58
2023-05-05T11:07:37.415Z,27.31
2023-05-05T11:10:06.189Z,26.88
2023-05-05T11:12:54.142Z,27.00
2023-05-05T11:15:28.103Z,26.80
2023-05-05T11:17:58.480Z,27.23
2023-05-05T11:20:35.325Z,29.17
2023-05-05T11:23:02.558Z,29.58
2023-05-05T11:25:41.176Z,29.35
2023-05-05T11:28:12.354Z,28.13
2023-05-05T11:31:03.477Z,29.37
2023-05-05T11:33:40.086Z,29.40
2023-05-05T11:36:11.796Z,29.90
2023-05-05T11:38:39.419Z,29.46
2023-05-05T11:41:12.501Z,29.00
2023-05-05T11:43:41.287Z,30.11
2023-05-05T11:46:15.541Z,31.01
2023-05-05T11:48:53.512Z,31.61
2023-05-05T11:51:22.247Z,30.55
2023-05-05T11:53:50.031Z,31.64
2023-05-05T11:56:19.360Z,34.39
2023-05-05T11:58:47.139Z,34.09
2023-05-05T12:01:14.804Z,32.59
2023-05-05T12:03:43.457Z,32.26
2023-05-05T12:06:10.983Z,33.06
2023-05-05T12:08:38.779Z,32.26
2023-05-05T12:11:08.071Z,31.65
2023-05-05T12:13:35.445Z,30.46
2023-05-05T12:16:13.082Z,29.85
2023-05-05T12:18:41.169Z,31.25
2023-05-05T12:21:18.147Z,31.87
2023-05-05T12:23:45.863Z,30.80
2023-05-05T12:26:31.727Z,30.75
2023-05-05T12:28:59.678Z,31.74
2023-05-05T12:31:37.058Z,31.33
2023-05-05T12:34:05.196Z,32.59
2023-05-05T12:36:33.640Z,32.40
2023-05-05T12:39:01.039Z,31.88
2023-05-05T12:41:28.745Z,30.86
2023-05-05T12:43:57.161Z,31.05
2023-05-05T12:46:24.676Z,30.92
2023-05-05T12:49:07.801Z,30.49
2023-05-05T12:51:36.247Z,29.76
2023-05-05T12:54:08.260Z,29.16
2023-05-05T12:56:42.943Z,28.94
2023-05-05T12:59:23.372Z,32.02
2023-05-05T13:01:58.635Z,30.23
2023-05-05T13:04:27.034Z,30.65
2023-05-05T13:07:16.100Z,30.17
2023-05-05T13:09:43.807Z,30.28
2023-05-05T13:12:12.350Z,29.36
2023-05-05T13:14:40.736Z,29.42
2023-05-05T13:17:08.731Z,29.72
2023-05-05T13:19:41.702Z,30.94
2023-05-05T13:22:10.110Z,30.30
2023-05-05T13:24:49.960Z,29.89
2023-05-05T13:27:19.848Z,29.87
2023-05-05T13:29:47.205Z,31.24
2023-05-05T13:32:14.596Z,30.47
2023-05-05T13:34:43.566Z,30.60
2023-05-05T13:37:10.970Z,30.72
2023-05-05T13:39:38.417Z,30.51
2023-05-05T13:42:06.066Z,30.28
2023-05-05T13:44:33.431Z,29.83
2023-05-05T13:47:00.975Z,30.06
2023-05-05T13:49:28.682Z,30.68
2023-05-05T13:51:56.324Z,31.08
2023-05-05T13:54:23.778Z,30.18
2023-05-05T13:56:51.423Z,30.18
2023-05-05T13:59:18.813Z,30.22
2023-05-05T14:01:46.157Z,30.19
2023-05-05T14:04:16.934Z,30.34
2023-05-05T14:06:44.661Z,29.83
2023-05-05T14:09:13.143Z,29.28
2023-05-05T14:11:41.160Z,32.07
2023-05-05T14:14:08.538Z,30.60
2023-05-05T14:16:35.935Z,32.63
2023-05-05T14:19:03.655Z,32.32
2023-05-05T14:21:32.563Z,30.71
2023-05-05T14:24:00.013Z,30.37
2023-05-05T14:26:27.644Z,31.24
2023-05-05T14:28:54.991Z,30.32
2023-05-05T14:31:22.394Z,30.24
2023-05-05T14:33:50.084Z,29.52
2023-05-05T14:36:17.553Z,29.24
2023-05-05T14:38:44.916Z,29.32
2023-05-05T14:41:12.656Z,30.62
2023-05-05T14:43:40.006Z,31.49
2023-05-05T14:46:07.543Z,30.86
2023-05-05T14:48:35.494Z,30.33
2023-05-05T14:51:02.845Z,31.48
2023-05-05T14:53:30.410Z,32.28
2023-05-05T14:55:58.026Z,31.07
2023-05-05T14:58:25.436Z,34.21
2023-05-05T15:00:52.901Z,32.70
2023-05-05T15:03:20.738Z,32.09
2023-05-05T15:05:48.134Z,30.81
2023-05-05T15:08:15.508Z,30.84
2023-05-05T15:10:43.145Z,31.08
2023-05-05T15:13:10.510Z,30.12
2023-05-05T15:15:37.923Z,31.77
2023-05-05T15:18:05.659Z,32.37
2023-05-05T15:20:33.092Z,32.40
2023-05-05T15:23:01.396Z,32.64
2023-05-05T15:25:29.227Z,32.42
2023-05-05T15:27:56.650Z,32.55
2023-05-05T15:30:24.013Z,31.82
2023-05-05T15:32:51.666Z,33.28
2023-05-05T15:35:19.183Z,31.12
2023-05-05T15:37:46.540Z,31.48
2023-05-05T15:40:14.395Z,31.02
2023-05-05T15:42:41.752Z,30.47
2023-05-05T15:45:14.856Z,30.30
2023-05-05T15:47:42.665Z,32.14
2023-05-05T15:50:10.349Z,31.53
2023-05-05T15:52:37.824Z,31.77
2023-05-05T15:55:06.672Z,31.25
2023-05-05T15:57:34.199Z,31.04
2023-05-05T16:00:01.561Z,32.16
2023-05-05T16:02:29.252Z,30.96
2023-05-05T16:04:57.133Z,30.21
2023-05-05T16:07:24.502Z,31.37
2023-05-05T16:09:52.469Z,30.84
2023-05-05T16:12:22.873Z,31.07
2023-05-05T16:14:50.294Z,31.43
2023-05-05T16:17:17.671Z,30.99
2023-05-05T16:19:45.324Z,31.35
2023-05-05T16:22:12.671Z,30.54
2023-05-05T16:24:40.736Z,30.91
2023-05-05T16:27:09.626Z,30.94
2023-05-05T16:29:36.995Z,30.54
2023-05-05T16:32:05.493Z,31.01
2023-05-05T16:34:33.203Z,30.59
2023-05-05T16:37:00.768Z,30.82
2023-05-05T16:39:28.429Z,30.83
2023-05-05T16:41:56.103Z,31.02
2023-05-05T16:44:23.477Z,31.31
2023-05-05T16:46:50.816Z,31.05
2023-05-05T16:49:18.432Z,31.18
2023-05-05T16:51:45.888Z,31.83
2023-05-05T16:54:13.280Z,32.22
2023-05-05T16:56:40.919Z,32.37
2023-05-05T16:59:08.367Z,32.04
2023-05-05T17:01:35.758Z,32.01
2023-05-05T17:04:03.429Z,32.82
2023-05-05T17:06:33.535Z,32.47
2023-05-05T17:09:00.926Z,32.67
2023-05-05T17:11:28.550Z,33.06
2023-05-05T17:13:56.321Z,33.40
2023-05-05T17:16:23.764Z,33.95
2023-05-05T17:18:53.227Z,34.59
2023-05-05T17:21:20.601Z,35.79
2023-05-05T17:23:47.939Z,36.49
2023-05-05T17:26:15.649Z,37.22
2023-05-05T17:28:43.111Z,37.36
2023-05-05T17:31:11.048Z,37.78
2023-05-05T17:33:38.708Z,37.85
2023-05-05T17:36:06.486Z,38.29
2023-05-05T17:38:33.812Z,38.85
2023-05-05T17:41:01.703Z,39.50
2023-05-05T17:43:29.046Z,39.60
2023-05-05T17:45:56.517Z,40.02
2023-05-05T17:48:24.307Z,40.15
2023-05-05T17:50:54.617Z,40.89
2023-05-05T17:53:22.394Z,40.69
2023-05-05T17:55:50.024Z,40.01
2023-05-05T17:58:17.432Z,41.27
2023-05-05T18:00:44.790Z,41.29
2023-05-05T18:03:12.538Z,41.53
2023-05-05T18:05:40.003Z,41.42
2023-05-05T18:08:07.761Z,42.01
2023-05-05T18:10:35.400Z,42.51
2023-05-05T18:13:02.811Z,42.30
2023-05-05T18:15:30.210Z,42.67
2023-05-05T18:17:57.885Z,42.99
2023-05-05T18:20:25.233Z,42.76
2023-05-05T18:22:52.596Z,42.53
2023-05-05T18:25:20.331Z,42.91
2023-05-05T18:27:47.696Z,42.31
2023-05-05T18:30:15.108Z,43.10
2023-05-05T18:32:42.733Z,42.89
2023-05-05T18:35:10.454Z,43.26
2023-05-05T18:37:38.033Z,42.99
2023-05-05T18:40:06.891Z,43.45
2023-05-05T18:42:34.304Z,43.67
2023-05-05T18:45:01.633Z,43.83
2023-05-05T18:47:29.366Z,44.09
2023-05-05T18:49:56.925Z,44.09
2023-05-05T18:52:24.298Z,44.34
2023-05-05T18:54:52.026Z,44.47
2023-05-05T18:57:19.355Z,44.54
2023-05-05T18:59:46.808Z,45.58
2023-05-05T19:02:14.441Z,45.70
2023-05-05T19:04:42.223Z,45.74
2023-05-05T19:07:09.615Z,46.10
2023-05-05T19:09:37.498Z,47.02
2023-05-05T19:12:05.100Z,46.50
2023-05-05T19:14:32.614Z,46.71
2023-05-05T19:17:01.448Z,46.71
2023-05-05T19:19:28.925Z,47.89
2023-05-05T19:21:56.814Z,49.21
2023-05-05T19:24:24.449Z,48.64
2023-05-05T19:26:51.830Z,48.39
2023-05-05T19:29:19.219Z,48.54
2023-05-05T19:31:46.924Z,48.54
2023-05-05T19:34:14.361Z,49.29
2023-05-05T19:36:41.734Z,49.08
2023-05-05T19:39:09.346Z,48.50
2023-05-05T19:41:36.684Z,48.47
2023-05-05T19:44:04.192Z,48.91
2023-05-05T19:46:31.984Z,49.47
2023-05-05T19:48:59.423Z,49.24
2023-05-05T19:51:27.185Z,50.04
2023-05-05T19:53:54.796Z,50.75
2023-05-05T19:56:23.160Z,51.93
2023-05-05T19:58:54.903Z,51.68
2023-05-05T20:01:22.521Z,52.38
2023-05-05T20:04:32.958Z,52.00
2023-05-05T20:07:00.688Z,52.88
2023-05-05T20:09:28.056Z,52.57
2023-05-05T20:11:55.808Z,53.14
2023-05-05T20:14:23.540Z,52.57
2023-05-05T20:16:50.904Z,52.79
2023-05-05T20:19:18.601Z,52.25
2023-05-05T20:21:46.216Z,52.90
2023-05-05T20:24:13.594Z,53.44
2023-05-05T20:26:41.391Z,53.76
2023-05-05T20:29:09.012Z,53.45
2023-05-05T20:31:36.979Z,52.84
2023-05-05T20:34:04.359Z,52.98
2023-05-05T20:36:32.646Z,54.18
2023-05-05T20:39:00.024Z,53.13
2023-05-05T20:41:27.379Z,53.04
2023-05-05T20:43:54.962Z,52.34
2023-05-05T20:46:22.361Z,52.31
2023-05-05T20:48:49.744Z,52.54
2023-05-05T20:51:17.446Z,52.39
2023-05-05T20:53:44.833Z,51.70
2023-05-05T20:56:12.175Z,52.32
2023-05-05T20:58:39.939Z,52.79
2023-05-05T21:01:07.342Z,52.27
2023-05-05T21:03:34.714Z,52.53
2023-05-05T21:06:02.378Z,52.79
2023-05-05T21:08:30.083Z,54.57
2023-05-05T21:10:57.455Z,53.23
2023-05-05T21:13:25.175Z,52.67
2023-05-05T21:15:52.525Z,53.11
2023-05-05T21:18:19.887Z,53.96
2023-05-05T21:20:47.490Z,55.13
2023-05-05T21:23:14.821Z,54.45
2023-05-05T21:25:42.199Z,54.50
2023-05-05T21:28:09.812Z,55.15
2023-05-05T21:30:38.033Z,54.67
2023-05-05T21:33:05.464Z,54.72
2023-05-05T21:35:33.093Z,54.94
2023-05-05T21:38:00.540Z,55.11
2023-05-05T21:40:27.885Z,55.11
2023-05-05T21:42:55.498Z,54.82
2023-05-05T21:45:22.968Z,54.31
2023-05-05T21:47:50.865Z,54.46
2023-05-05T21:50:18.527Z,55.51
2023-05-05T21:52:46.017Z,54.60
2023-05-05T21:55:13.395Z,54.33
2023-05-05T21:57:41.027Z,54.38
2023-05-05T22:00:09.178Z,54.13
2023-05-05T22:02:39.725Z,55.08
2023-05-05T22:05:07.722Z,54.90
2023-05-05T22:07:35.086Z,54.87
2023-05-05T22:10:03.668Z,54.92
2023-05-05T22:12:31.558Z,54.53
2023-05-05T22:14:58.943Z,55.66
2023-05-05T22:17:26.333Z,56.35
2023-05-05T22:19:53.956Z,55.33
2023-05-05T22:22:21.310Z,56.20
2023-05-05T22:24:48.760Z,56.20
2023-05-05T22:27:16.435Z,55.96
2023-05-05T22:29:43.818Z,55.81
2023-05-05T22:32:11.302Z,56.44
2023-05-05T22:34:38.896Z,56.85
2023-05-05T22:37:06.362Z,56.76
2023-05-05T22:39:33.803Z,56.96
2023-05-05T22:42:01.822Z,57.52
2023-05-05T22:44:29.259Z,55.48
2023-05-05T22:46:56.625Z,55.81
2023-05-05T22:49:24.317Z,57.52
2023-05-05T22:51:51.921Z,58.02
2023-05-05T22:54:19.305Z,57.31
2023-05-05T22:56:47.445Z,57.09
2023-05-05T22:59:14.817Z,56.96
2023-05-05T23:01:42.263Z,56.99
2023-05-05T23:04:09.968Z,56.64
2023-05-05T23:06:37.378Z,56.38
2023-05-05T23:09:04.866Z,57.55
2023-05-05T23:11:32.498Z,58.47
2023-05-05T23:13:59.917Z,58.59
2023-05-05T23:16:27.335Z,57.12
2023-05-05T23:18:55.019Z,59.26
2023-05-05T23:21:22.336Z,58.20
2023-05-05T23:23:49.660Z,57.02
2023-05-05T23:26:17.300Z,58.36
2023-05-05T23:28:44.657Z,59.59
2023-05-05T23:31:12.043Z,58.58
2023-05-05T23:33:39.675Z,59.98
2023-05-05T23:36:07.098Z,59.92
2023-05-05T23:38:34.507Z,58.99
2023-05-05T23:41:02.114Z,59.62
2023-05-05T23:43:29.499Z,59.01
2023-05-05T23:45:56.890Z,59.50
2023-05-05T23:48:24.561Z,58.26
2023-05-05T23:50:52.558Z,57.90
2023-05-05T23:53:19.927Z,58.93
2023-05-05T23:55:47.587Z,57.86
2023-05-05T23:58:14.962Z,58.29
